Time;durP1;ratioP1;P1;durP2;ratioP2;P2;SDS_P1;SDS_P2;PMS_P1;PMS_P2;Temp;Humidity;BMP_temperature;BMP_pressure;BME280_temperature;BME280_humidity;BME280_pressure;Samples;Min_cycle;Max_cycle;Signal;HPM_P1;HPM_P2
2022/04/04 00:00:13;;;;;;;8.03;6.37;;;-1.40;99.90;;;;;;5046687;28;20238;-79
2022/04/04 00:02:39;;;;;;;10.70;6.90;;;-1.40;99.90;;;;;;5031768;28;20231;-79
2022/04/04 00:05:05;;;;;;;11.55;7.78;;;-1.50;99.90;;;;;;5046662;28;20485;-80
2022/04/04 00:07:31;;;;;;;10.20;6.90;;;-1.40;99.90;;;;;;5027710;28;20275;-79
2022/04/04 00:09:56;;;;;;;10.27;7.37;;;-1.40;99.90;;;;;;5027919;28;20473;-78
2022/04/04 00:12:23;;;;;;;8.90;7.87;;;-1.40;99.90;;;;;;5044712;28;20221;-78
2022/04/04 00:14:49;;;;;;;16.73;9.55;;;-1.40;99.90;;;;;;5030586;28;20177;-78
2022/04/04 00:17:15;;;;;;;10.82;7.30;;;-1.50;99.90;;;;;;5029812;28;20184;-79
2022/04/04 00:19:41;;;;;;;9.33;6.83;;;-1.50;99.90;;;;;;5045334;28;20180;-78
2022/04/04 00:22:07;;;;;;;9.33;7.43;;;-1.60;99.90;;;;;;5012027;28;20266;-78
2022/04/04 00:24:33;;;;;;;14.20;7.30;;;-1.50;99.90;;;;;;5045904;28;20437;-78
2022/04/04 00:26:59;;;;;;;8.93;7.00;;;-1.50;99.90;;;;;;5030450;28;20430;-78
2022/04/04 00:29:25;;;;;;;10.55;7.72;;;-1.50;99.90;;;;;;5029120;28;20940;-78
2022/04/04 00:31:51;;;;;;;9.97;7.47;;;-1.50;99.90;;;;;;5029908;28;20323;-78
2022/04/04 00:34:17;;;;;;;8.73;7.00;;;-1.50;99.90;;;;;;5029346;28;20185;-78
2022/04/04 00:36:43;;;;;;;8.53;7.03;;;-1.60;99.90;;;;;;5045055;28;20234;-78
2022/04/04 00:39:10;;;;;;;16.13;7.60;;;-1.60;99.90;;;;;;5029633;28;20181;-79
2022/04/04 00:41:36;;;;;;;10.30;7.70;;;-1.60;99.90;;;;;;5029026;28;20952;-78
2022/04/04 00:44:02;;;;;;;13.00;7.30;;;-1.70;99.90;;;;;;5044284;28;20234;-78
2022/04/04 00:46:28;;;;;;;10.20;7.70;;;-1.80;99.90;;;;;;5027620;28;20180;-78
2022/04/04 00:48:54;;;;;;;11.27;6.33;;;-1.80;99.90;;;;;;5027249;28;20184;-78
2022/04/04 00:51:19;;;;;;;16.83;7.70;;;-1.80;99.90;;;;;;5032573;28;20208;-79
2022/04/04 00:53:45;;;;;;;8.77;6.77;;;-1.90;99.90;;;;;;5053213;28;20204;-80
2022/04/04 00:56:12;;;;;;;10.17;7.00;;;-1.30;99.90;;;;;;5036657;28;20283;-79
2022/04/04 00:58:38;;;;;;;9.55;7.25;;;-1.90;99.90;;;;;;5053017;28;20189;-79
2022/04/04 01:01:05;;;;;;;8.57;7.18;;;-1.90;99.90;;;;;;5037229;28;20207;-79
2022/04/04 01:03:31;;;;;;;8.10;7.05;;;-2.00;99.90;;;;;;5037969;28;20196;-79
2022/04/04 01:05:58;;;;;;;10.70;7.10;;;-1.90;99.90;;;;;;5034529;28;20191;-80
2022/04/04 01:08:24;;;;;;;15.63;7.63;;;-2.10;99.90;;;;;;5049884;28;20453;-81
2022/04/04 01:10:50;;;;;;;8.70;6.63;;;-2.10;99.90;;;;;;5034497;28;20231;-80
2022/04/04 01:13:16;;;;;;;10.27;7.57;;;-2.00;99.90;;;;;;5049098;28;20204;-80
2022/04/04 01:15:42;;;;;;;8.95;6.43;;;-2.10;99.90;;;;;;5032831;28;20556;-78
2022/04/04 01:18:08;;;;;;;8.47;7.27;;;-2.10;99.90;;;;;;5030962;28;20185;-78
2022/04/04 01:20:35;;;;;;;9.43;6.90;;;-2.20;99.90;;;;;;5034543;28;20189;-78
2022/04/04 01:23:02;;;;;;;8.15;6.20;;;-2.30;99.90;;;;;;5033120;28;20282;-78
2022/04/04 01:25:30;;;;;;;8.75;6.43;;;-2.30;99.90;;;;;;5035880;28;20192;-78
2022/04/04 01:27:58;;;;;;;10.38;6.72;;;-2.40;99.90;;;;;;5036151;28;20262;-78
2022/04/04 01:30:25;;;;;;;12.05;6.85;;;-2.50;99.90;;;;;;5036567;28;20216;-78
2022/04/04 01:32:51;;;;;;;9.70;7.68;;;-2.40;99.90;;;;;;5036254;28;20223;-78
2022/04/04 01:35:18;;;;;;;8.15;5.82;;;-2.40;99.90;;;;;;5035957;28;20195;-78
2022/04/04 01:37:44;;;;;;;8.40;6.38;;;-2.50;99.90;;;;;;5034383;28;20184;-78
2022/04/04 01:40:10;;;;;;;8.50;7.27;;;-2.40;99.90;;;;;;5035147;28;20195;-79
2022/04/04 01:42:37;;;;;;;8.43;6.45;;;-2.40;99.90;;;;;;5035911;28;20224;-78
2022/04/04 01:45:05;;;;;;;9.10;6.28;;;-2.50;99.90;;;;;;5037205;28;20207;-79
2022/04/04 01:47:32;;;;;;;12.77;6.25;;;-2.50;99.90;;;;;;5036720;28;20184;-79
2022/04/04 01:49:57;;;;;;;15.15;6.68;;;-2.60;99.90;;;;;;5036086;28;20181;-79
2022/04/04 01:52:23;;;;;;;11.20;6.20;;;-2.70;99.90;;;;;;5035894;28;20719;-79
2022/04/04 01:54:49;;;;;;;9.17;6.13;;;-2.70;99.90;;;;;;5051344;28;20184;-79
2022/04/04 01:57:14;;;;;;;7.23;5.60;;;-2.80;99.90;;;;;;5051130;28;20207;-79
2022/04/04 01:59:41;;;;;;;10.80;6.70;;;-2.90;99.90;;;;;;5034034;28;20647;-81
2022/04/04 02:02:06;;;;;;;9.95;7.22;;;-2.90;99.90;;;;;;5048420;28;20222;-80
2022/04/04 02:04:32;;;;;;;7.77;6.70;;;-2.90;99.90;;;;;;5050402;28;20184;-80
2022/04/04 02:06:59;;;;;;;8.80;6.68;;;-2.90;99.90;;;;;;5033660;28;20203;-79
2022/04/04 02:09:25;;;;;;;7.30;5.38;;;-3.00;99.90;;;;;;5046456;28;20184;-80
2022/04/04 02:11:51;;;;;;;7.60;5.93;;;-3.10;99.90;;;;;;5046276;28;20618;-81
2022/04/04 02:14:17;;;;;;;6.83;5.87;;;-3.20;99.90;;;;;;5046384;28;20184;-80
2022/04/04 02:16:43;;;;;;;7.47;5.93;;;-3.20;99.90;;;;;;5029807;28;20535;-80
2022/04/04 02:19:09;;;;;;;10.60;6.30;;;-3.30;99.90;;;;;;5030159;28;20185;-80
2022/04/04 02:21:35;;;;;;;8.70;6.32;;;-3.30;99.90;;;;;;5029531;28;20944;-79
2022/04/04 02:24:02;;;;;;;7.37;6.20;;;-3.40;99.90;;;;;;5029487;28;20211;-79
2022/04/04 02:26:27;;;;;;;9.68;6.00;;;-3.40;99.90;;;;;;5048518;28;20431;-80
2022/04/04 02:28:53;;;;;;;23.30;12.20;;;-3.40;99.90;;;;;;5032911;28;20181;-81
2022/04/04 02:31:19;;;;;;;18.93;9.20;;;-3.40;99.90;;;;;;5033112;28;20208;-81
2022/04/04 02:33:45;;;;;;;10.87;5.90;;;-3.30;99.90;;;;;;5038014;28;20215;-83
2022/04/04 02:36:10;;;;;;;7.30;6.50;;;-3.30;99.90;;;;;;5050237;28;20188;-77
2022/04/04 02:38:36;;;;;;;8.93;5.87;;;-3.20;99.90;;;;;;5045938;28;20184;-79
2022/04/04 02:41:02;;;;;;;10.23;6.70;;;-3.20;99.90;;;;;;5046547;28;20723;-78
2022/04/04 02:43:27;;;;;;;12.20;5.67;;;-3.20;99.90;;;;;;5031628;28;20580;-79
2022/04/04 02:45:53;;;;;;;8.23;6.37;;;-3.20;99.90;;;;;;5031098;28;20194;-79
2022/04/04 02:48:20;;;;;;;7.53;6.57;;;-3.30;99.90;;;;;;5029319;28;20242;-77
2022/04/04 02:50:46;;;;;;;8.23;6.10;;;-3.40;99.90;;;;;;5030727;28;20204;-80
2022/04/04 02:53:13;;;;;;;6.38;5.70;;;-3.40;99.90;;;;;;5045100;28;20255;-78
2022/04/04 02:58:22;;;;;;;11.13;6.50;;;-3.50;99.90;;;;;;5043229;28;20257;-79
2022/04/04 03:00:48;;;;;;;6.20;5.33;;;-3.50;99.90;;;;;;5029903;28;20218;-75
2022/04/04 03:03:14;;;;;;;8.20;6.47;;;-3.60;99.90;;;;;;5045109;28;20287;-80
2022/04/04 03:05:40;;;;;;;9.87;6.00;;;-3.50;99.90;;;;;;5045007;28;20574;-77
2022/04/04 03:08:06;;;;;;;7.43;6.13;;;-3.50;99.90;;;;;;5029741;28;20192;-76
2022/04/04 03:10:33;;;;;;;9.02;6.40;;;-3.50;99.90;;;;;;5029605;28;20519;-78
2022/04/04 03:13:02;;;;;;;6.40;5.20;;;-3.70;99.90;;;;;;5029890;28;20271;-76
2022/04/04 03:15:29;;;;;;;8.20;6.15;;;-3.70;99.90;;;;;;5044565;28;20562;-77
2022/04/04 03:17:56;;;;;;;6.72;5.40;;;-3.90;99.90;;;;;;5029548;28;20180;-75
2022/04/04 03:20:23;;;;;;;10.65;6.47;;;-4.00;99.90;;;;;;5044783;28;20184;-75
2022/04/04 03:22:52;;;;;;;5.78;5.20;;;-4.00;99.90;;;;;;5044343;28;20212;-76
2022/04/04 03:25:17;;;;;;;9.85;5.97;;;-4.10;99.90;;;;;;5027943;28;20254;-76
2022/04/04 03:27:45;;;;;;;7.87;6.10;;;-4.10;99.90;;;;;;5044451;28;20181;-76
2022/04/04 03:30:15;;;;;;;9.55;6.65;;;-4.10;99.90;;;;;;5044247;28;20192;-77
2022/04/04 03:32:41;;;;;;;12.20;6.35;;;-3.80;99.90;;;;;;5027663;28;20274;-75
2022/04/04 03:35:07;;;;;;;7.03;5.97;;;-3.90;99.90;;;;;;5029330;28;20184;-76
2022/04/04 03:37:35;;;;;;;8.68;6.85;;;-3.70;99.90;;;;;;5029534;28;20865;-76
2022/04/04 03:40:02;;;;;;;9.63;7.50;;;-3.60;99.90;;;;;;5029355;28;20187;-77
2022/04/04 03:42:28;;;;;;;11.98;7.65;;;-3.60;99.90;;;;;;5028989;28;20291;-78
2022/04/04 03:44:54;;;;;;;14.60;6.37;;;-3.50;99.90;;;;;;5030196;28;20271;-78
2022/04/04 03:47:20;;;;;;;7.90;6.50;;;-3.30;99.90;;;;;;5029797;28;20210;-79
2022/04/04 03:49:46;;;;;;;14.50;9.50;;;-3.10;99.90;;;;;;5029393;28;20176;-76
2022/04/04 03:52:11;;;;;;;10.07;6.50;;;-3.10;99.90;;;;;;5029018;28;20258;-76
2022/04/04 03:54:37;;;;;;;11.53;6.40;;;-3.00;99.90;;;;;;5029011;28;20180;-76
2022/04/04 03:57:03;;;;;;;7.83;6.07;;;-2.80;99.90;;;;;;5044363;28;20180;-80
2022/04/04 03:59:29;;;;;;;8.40;6.00;;;-2.80;99.90;;;;;;5028091;28;20454;-78
2022/04/04 04:01:54;;;;;;;6.60;5.50;;;-2.70;99.90;;;;;;5028289;28;20422;-79
2022/04/04 04:04:20;;;;;;;10.10;6.50;;;-2.80;99.90;;;;;;5029555;28;20192;-77
2022/04/04 04:06:46;;;;;;;6.07;5.20;;;-2.90;99.90;;;;;;5044756;28;20674;-78
2022/04/04 04:09:12;;;;;;;8.40;6.43;;;-2.90;99.90;;;;;;5030278;28;20180;-79
2022/04/04 04:11:38;;;;;;;6.97;6.13;;;-2.80;99.90;;;;;;5030106;28;20303;-80
2022/04/04 04:14:05;;;;;;;8.43;6.88;;;-2.90;99.90;;;;;;5044927;28;20283;-79
2022/04/04 04:16:31;;;;;;;8.00;5.72;;;-2.80;99.90;;;;;;5028269;28;20608;-76
2022/04/04 04:18:57;;;;;;;8.25;5.97;;;-2.70;99.90;;;;;;5029347;28;20234;-76
2022/04/04 04:21:23;;;;;;;5.97;5.00;;;-2.60;99.90;;;;;;5028114;28;20553;-76
2022/04/04 04:23:50;;;;;;;8.30;5.88;;;-2.50;99.90;;;;;;5044452;28;20553;-76
2022/04/04 04:26:16;;;;;;;10.85;9.30;;;-2.40;99.90;;;;;;5029276;28;20230;-76
2022/04/04 04:28:44;;;;;;;7.43;6.20;;;-2.30;99.90;;;;;;5029343;28;20267;-76
2022/04/04 04:31:10;;;;;;;9.75;8.25;;;-2.30;99.90;;;;;;5027594;28;20679;-76
2022/04/04 04:33:35;;;;;;;7.95;7.15;;;-2.30;99.90;;;;;;5028998;28;20314;-76
2022/04/04 04:36:01;;;;;;;6.80;6.10;;;-2.40;99.90;;;;;;5044100;28;20308;-77
2022/04/04 04:38:29;;;;;;;10.53;5.93;;;-2.40;99.90;;;;;;5028841;28;20645;-76
2022/04/04 04:40:55;;;;;;;5.78;5.18;;;-2.60;99.90;;;;;;5042860;28;20537;-75
2022/04/04 04:43:20;;;;;;;6.40;5.80;;;-2.70;99.90;;;;;;5025463;28;20212;-76
2022/04/04 04:45:46;;;;;;;6.70;5.43;;;-2.70;99.90;;;;;;5041950;28;20193;-77
2022/04/04 04:48:12;;;;;;;8.00;5.30;;;-2.70;99.90;;;;;;5026813;28;20184;-77
2022/04/04 04:50:38;;;;;;;6.87;5.17;;;-2.60;99.90;;;;;;5026711;28;20215;-77
2022/04/04 04:53:04;;;;;;;8.37;5.80;;;-2.60;99.90;;;;;;5042165;28;20211;-77
2022/04/04 04:55:30;;;;;;;7.50;5.55;;;-2.60;99.90;;;;;;5030879;28;20782;-77
2022/04/04 04:57:57;;;;;;;7.85;6.25;;;-2.50;99.90;;;;;;5030704;28;20203;-76
2022/04/04 05:00:26;;;;;;;7.50;5.25;;;-2.50;99.90;;;;;;5030626;28;20184;-77
2022/04/04 05:03:24;;;;;;;5.72;4.57;;;-2.50;99.90;;;;;;5029120;28;20209;-77
2022/04/04 05:05:39;;;;;;;6.10;5.32;;;-2.30;99.90;;;;;;5030413;28;20188;-77
2022/04/04 05:08:06;;;;;;;7.13;5.97;;;-2.40;99.90;;;;;;5029082;28;20820;-77
2022/04/04 05:10:32;;;;;;;5.90;5.30;;;-2.40;99.90;;;;;;5030388;28;20188;-77
2022/04/04 05:12:57;;;;;;;9.73;5.77;;;-2.50;99.90;;;;;;5045571;28;20201;-76
2022/04/04 05:15:23;;;;;;;7.47;5.63;;;-2.50;99.90;;;;;;5030387;28;20611;-77
2022/04/04 05:17:53;;;;;;;6.13;5.30;;;-2.40;99.90;;;;;;5045114;28;20200;-77
2022/04/04 05:20:19;;;;;;;10.00;6.20;;;-2.40;99.90;;;;;;5028672;28;20702;-77
2022/04/04 05:22:46;;;;;;;9.30;7.00;;;-2.20;99.90;;;;;;5045237;28;20204;-77
2022/04/04 05:25:12;;;;;;;19.45;5.95;;;-2.10;99.90;;;;;;5045202;28;20603;-76
2022/04/04 05:27:41;;;;;;;7.23;5.33;;;-2.10;99.90;;;;;;5028886;28;20275;-76
2022/04/04 05:30:08;;;;;;;13.50;6.15;;;-2.10;99.90;;;;;;5029985;28;20425;-77
2022/04/04 05:32:34;;;;;;;10.77;5.78;;;-2.10;99.90;;;;;;5029887;28;20223;-76
2022/04/04 05:35:00;;;;;;;11.18;6.60;;;-2.10;99.90;;;;;;5029905;28;20204;-76
2022/04/04 05:37:26;;;;;;;8.05;6.13;;;-2.10;99.90;;;;;;5045011;28;20273;-76
2022/04/04 05:39:52;;;;;;;14.17;6.97;;;-2.10;99.90;;;;;;5044939;28;20677;-76
2022/04/04 05:42:17;;;;;;;14.90;7.30;;;-2.10;99.90;;;;;;5029823;28;20283;-77
2022/04/04 05:44:43;;;;;;;12.10;7.50;;;-2.00;99.90;;;;;;5030265;28;20255;-76
2022/04/04 05:47:13;;;;;;;10.80;7.33;;;-1.80;99.90;;;;;;5030704;28;20535;-77
2022/04/04 05:49:40;;;;;;;14.05;9.63;;;-1.80;99.90;;;;;;5046948;28;20194;-76
2022/04/04 05:52:06;;;;;;;13.43;8.65;;;-1.70;99.90;;;;;;5031127;28;20259;-76
2022/04/04 05:54:32;;;;;;;12.32;8.35;;;-1.60;99.90;;;;;;5031282;28;20184;-76
2022/04/04 05:56:58;;;;;;;9.43;7.53;;;-1.40;99.90;;;;;;5029577;28;20186;-76
2022/04/04 05:59:25;;;;;;;10.38;7.20;;;-1.20;99.90;;;;;;5031121;28;20187;-76
2022/04/04 06:01:51;;;;;;;17.38;6.93;;;-1.10;99.90;;;;;;5029571;28;20194;-76
2022/04/04 06:04:16;;;;;;;12.20;6.47;;;-1.00;99.90;;;;;;5030358;28;20275;-76
2022/04/04 06:06:42;;;;;;;10.23;6.17;;;-0.90;99.90;;;;;;5029512;28;20419;-76
2022/04/04 06:09:08;;;;;;;8.70;6.13;;;-0.70;99.90;;;;;;5045486;28;20729;-76
2022/04/04 06:11:34;;;;;;;7.10;5.80;;;-0.80;99.90;;;;;;5030040;28;20471;-76
2022/04/04 06:14:00;;;;;;;9.73;5.53;;;-0.70;99.90;;;;;;5045025;28;20213;-76
2022/04/04 06:16:26;;;;;;;6.70;5.30;;;-0.60;99.90;;;;;;5029954;28;20186;-76
2022/04/04 06:18:52;;;;;;;9.00;5.90;;;-0.40;99.90;;;;;;5045199;28;20498;-76
2022/04/04 06:21:17;;;;;;;9.40;6.30;;;0.00;99.90;;;;;;5030086;28;20188;-76
2022/04/04 06:23:43;;;;;;;9.07;6.20;;;0.10;99.90;;;;;;5029860;28;20203;-76
2022/04/04 06:26:09;;;;;;;9.17;6.20;;;0.70;99.90;;;;;;5029662;28;20640;-76
2022/04/04 06:28:35;;;;;;;16.90;7.40;;;1.30;99.90;;;;;;5029609;28;20210;-76
2022/04/04 06:31:04;;;;;;;7.30;5.95;;;1.80;99.90;;;;;;5044627;28;20662;-75
2022/04/04 06:33:29;;;;;;;7.78;6.15;;;2.20;99.70;;;;;;5027303;28;20247;-76
2022/04/04 06:35:55;;;;;;;10.20;5.60;;;2.70;99.90;;;;;;5027328;28;20216;-76
2022/04/04 06:38:21;;;;;;;6.97;5.57;;;3.10;99.60;;;;;;5028941;28;20695;-76
2022/04/04 06:40:49;;;;;;;11.45;6.22;;;3.50;98.10;;;;;;5028629;28;20188;-76
2022/04/04 06:43:17;;;;;;;7.78;6.63;;;3.10;95.90;;;;;;5043762;28;20215;-76
2022/04/04 06:45:43;;;;;;;6.72;6.05;;;3.20;97.20;;;;;;5028954;28;20269;-76
2022/04/04 06:48:09;;;;;;;7.18;6.07;;;3.10;96.70;;;;;;5028813;28;20711;-76
2022/04/04 06:50:35;;;;;;;8.30;4.87;;;3.10;97.40;;;;;;5029174;28;20177;-76
2022/04/04 06:53:01;;;;;;;12.93;6.37;;;3.60;95.70;;;;;;5028536;28;20523;-76
2022/04/04 06:55:26;;;;;;;8.50;6.27;;;3.60;96.70;;;;;;5043920;28;20190;-76
2022/04/04 06:57:52;;;;;;;8.03;6.63;;;3.40;95.70;;;;;;5044055;28;20259;-76
2022/04/04 07:00:18;;;;;;;7.23;6.20;;;3.80;96.80;;;;;;5029052;28;20184;-76
2022/04/04 07:02:44;;;;;;;7.90;6.27;;;3.60;94.90;;;;;;5044219;28;20208;-76
2022/04/04 07:05:10;;;;;;;7.32;6.55;;;3.70;96.70;;;;;;5044077;28;20187;-76
2022/04/04 07:07:36;;;;;;;9.70;5.77;;;4.00;95.50;;;;;;5029057;28;20213;-76
2022/04/04 07:10:03;;;;;;;9.30;6.40;;;3.80;95.40;;;;;;5029024;28;20507;-76
2022/04/04 07:12:29;;;;;;;9.60;7.65;;;4.00;96.00;;;;;;5028477;28;20993;-77
2022/04/04 07:14:55;;;;;;;7.45;6.20;;;4.30;96.40;;;;;;5028674;28;20191;-76
2022/04/04 07:17:21;;;;;;;6.07;5.40;;;4.30;94.80;;;;;;5028543;28;20199;-76
2022/04/04 07:19:47;;;;;;;8.93;6.33;;;4.30;93.90;;;;;;5028779;28;20554;-76
2022/04/04 07:22:14;;;;;;;6.83;5.80;;;4.40;95.70;;;;;;5028014;28;20450;-76
2022/04/04 07:24:40;;;;;;;8.10;6.37;;;4.20;93.40;;;;;;5042907;28;20212;-76
2022/04/04 07:27:06;;;;;;;7.93;5.93;;;4.10;94.40;;;;;;5026319;28;20524;-76
2022/04/04 07:29:31;;;;;;;7.23;5.77;;;4.30;93.60;;;;;;5027901;28;20187;-76
2022/04/04 07:31:58;;;;;;;9.93;6.07;;;4.20;93.40;;;;;;5042434;28;20217;-76
2022/04/04 07:34:24;;;;;;;8.90;5.47;;;3.80;93.30;;;;;;5027567;28;20178;-76
2022/04/04 07:36:49;;;;;;;6.70;5.73;;;4.10;92.90;;;;;;5027605;28;20646;-76
2022/04/04 07:39:15;;;;;;;5.93;5.23;;;4.20;91.50;;;;;;5027605;28;20441;-76
2022/04/04 07:41:41;;;;;;;7.90;5.67;;;4.20;91.80;;;;;;5027691;28;20357;-77
2022/04/04 07:44:07;;;;;;;6.87;5.60;;;4.00;91.50;;;;;;5028022;28;20677;-76
2022/04/04 07:46:32;;;;;;;6.10;5.00;;;4.00;91.20;;;;;;5042760;28;20217;-76
2022/04/04 07:48:59;;;;;;;7.20;5.20;;;3.90;90.70;;;;;;5027739;28;20549;-76
2022/04/04 07:51:25;;;;;;;5.50;4.80;;;4.00;91.60;;;;;;5028058;28;20639;-76
2022/04/04 07:53:51;;;;;;;5.40;4.30;;;4.40;92.20;;;;;;5043116;28;20628;-77
2022/04/04 07:56:19;;;;;;;5.57;4.63;;;4.70;91.70;;;;;;5042864;28;20425;-76
2022/04/04 07:58:45;;;;;;;6.72;4.75;;;4.90;92.10;;;;;;5042772;28;20270;-76
2022/04/04 08:01:11;;;;;;;6.20;5.37;;;5.00;92.20;;;;;;5027864;28;20314;-76
2022/04/04 08:03:36;;;;;;;6.83;4.83;;;5.10;90.90;;;;;;5026479;28;20240;-76
2022/04/04 08:06:02;;;;;;;5.20;4.70;;;5.10;85.90;;;;;;5028324;28;20954;-76
2022/04/04 08:08:29;;;;;;;9.17;6.10;;;5.00;89.60;;;;;;5043426;28;20190;-76
2022/04/04 08:10:55;;;;;;;6.07;4.65;;;4.90;86.10;;;;;;5028180;28;20202;-76
2022/04/04 08:13:20;;;;;;;7.17;5.37;;;5.00;86.40;;;;;;5044421;28;20214;-77
2022/04/04 08:15:46;;;;;;;7.03;5.37;;;5.00;89.70;;;;;;5027474;28;20196;-76
2022/04/04 08:18:12;;;;;;;6.43;5.50;;;5.10;90.80;;;;;;5029003;28;20263;-76
2022/04/04 08:20:38;;;;;;;8.43;5.90;;;5.40;87.20;;;;;;5029176;28;20196;-76
2022/04/04 08:23:03;;;;;;;9.07;6.13;;;5.70;85.30;;;;;;5028967;28;20197;-76
2022/04/04 08:25:30;;;;;;;7.40;5.43;;;5.80;88.70;;;;;;5029339;28;20183;-76
2022/04/04 08:27:55;;;;;;;6.80;6.10;;;5.90;84.40;;;;;;5044405;28;20433;-76
2022/04/04 08:30:21;;;;;;;6.50;5.90;;;6.30;88.30;;;;;;5049547;28;20418;-76
2022/04/04 08:32:47;;;;;;;6.40;5.60;;;6.30;86.40;;;;;;5034419;28;20273;-76
2022/04/04 08:35:14;;;;;;;7.00;5.60;;;5.90;82.80;;;;;;5033177;28;20195;-76
2022/04/04 08:37:43;;;;;;;9.43;5.77;;;6.10;85.70;;;;;;5034469;28;20418;-76
2022/04/04 08:40:10;;;;;;;8.27;6.60;;;6.20;86.00;;;;;;5049608;28;20426;-76
2022/04/04 08:42:37;;;;;;;8.93;6.40;;;6.30;85.10;;;;;;5049861;28;20549;-76
2022/04/04 08:45:05;;;;;;;11.80;6.60;;;6.60;86.70;;;;;;5034638;28;20445;-76
2022/04/04 08:47:32;;;;;;;9.30;6.60;;;6.70;85.70;;;;;;5034729;28;20462;-76
2022/04/04 08:49:59;;;;;;;11.90;6.03;;;7.00;84.00;;;;;;5049509;28;20473;-76
2022/04/04 08:52:26;;;;;;;8.00;6.27;;;6.90;82.90;;;;;;5034179;28;20549;-76
2022/04/04 08:54:53;;;;;;;9.23;6.73;;;6.80;80.70;;;;;;5034441;28;20414;-76
2022/04/04 08:57:19;;;;;;;8.30;6.00;;;7.10;81.90;;;;;;5034170;28;20407;-76
2022/04/04 08:59:44;;;;;;;7.40;6.13;;;7.50;78.40;;;;;;5034123;28;20418;-76
2022/04/04 09:02:12;;;;;;;6.20;5.60;;;7.80;79.70;;;;;;5034056;28;21083;-76
2022/04/04 09:04:38;;;;;;;7.87;6.00;;;7.70;73.90;;;;;;5064080;22;20227;-76
2022/04/04 09:07:08;;;;;;;8.20;5.90;;;7.80;75.60;;;;;;5054592;28;20472;-76
2022/04/04 09:09:46;;;;;;;19.83;6.23;;;8.60;78.00;;;;;;5054816;28;20414;-76
2022/04/04 09:12:14;;;;;;;6.87;5.57;;;8.90;77.90;;;;;;5054482;28;20980;-76
2022/04/04 09:14:46;;;;;;;4.43;4.00;;;8.70;65.20;;;;;;5054364;28;20434;-76
2022/04/04 09:17:13;;;;;;;6.50;5.37;;;8.80;74.60;;;;;;5052846;28;20929;-76
2022/04/04 09:19:39;;;;;;;8.00;5.40;;;8.90;72.80;;;;;;5054283;28;20405;-76
2022/04/04 09:22:16;;;;;;;6.30;5.57;;;8.50;70.40;;;;;;5054281;28;20446;-76
2022/04/04 09:24:46;;;;;;;8.47;5.57;;;8.80;71.00;;;;;;5054466;28;20767;-75
2022/04/04 09:27:34;;;;;;;6.40;5.60;;;9.30;67.30;;;;;;5054629;28;20512;-75
2022/04/04 09:30:05;;;;;;;7.07;5.50;;;9.30;69.30;;;;;;5054608;28;20399;-75
2022/04/04 09:32:38;;;;;;;6.27;5.30;;;9.80;70.90;;;;;;5054622;28;20478;-74
2022/04/04 09:35:15;;;;;;;8.50;5.17;;;10.10;64.90;;;;;;5054776;28;20868;-75
2022/04/04 09:37:46;;;;;;;6.07;5.43;;;10.10;63.10;;;;;;5055031;28;20406;-75
2022/04/04 09:40:24;;;;;;;6.23;5.17;;;10.40;64.10;;;;;;5053072;28;20395;-74
2022/04/04 09:42:50;;;;;;;6.40;4.60;;;10.30;60.60;;;;;;5051578;28;20417;-75
2022/04/04 09:45:17;;;;;;;5.10;4.60;;;9.90;59.40;;;;;;5051361;28;20436;-76
2022/04/04 09:47:53;;;;;;;5.73;5.13;;;10.50;60.60;;;;;;5051231;28;20410;-77
2022/04/04 09:50:36;;;;;;;5.50;5.00;;;10.80;60.00;;;;;;5051462;28;20496;-76
2022/04/04 09:53:07;;;;;;;4.70;4.20;;;10.80;57.40;;;;;;5053792;28;20843;-76
2022/04/04 09:55:38;;;;;;;5.80;5.27;;;10.60;59.10;;;;;;5051242;28;20878;-75
2022/04/04 09:58:06;;;;;;;5.90;5.00;;;10.30;55.00;;;;;;5050980;28;20408;-74
2022/04/04 10:00:35;;;;;;;5.53;4.70;;;11.00;57.30;;;;;;5049392;28;20426;-75
2022/04/04 10:03:03;;;;;;;6.80;4.67;;;10.50;54.70;;;;;;5050496;28;20466;-75
2022/04/04 10:05:29;;;;;;;7.63;4.63;;;10.50;52.10;;;;;;5050624;28;20502;-75
2022/04/04 10:07:57;;;;;;;6.37;4.33;;;10.30;52.50;;;;;;5051046;28;20432;-75
2022/04/04 10:10:30;;;;;;;7.93;4.83;;;10.40;54.60;;;;;;5049424;28;20423;-75
2022/04/04 10:12:57;;;;;;;6.83;4.10;;;11.00;53.60;;;;;;5050678;28;20442;-74
2022/04/04 10:15:26;;;;;;;6.50;4.97;;;11.10;55.30;;;;;;5050353;28;20930;-75
2022/04/04 10:17:54;;;;;;;5.07;4.63;;;11.50;54.70;;;;;;5050300;28;20474;-74
2022/04/04 10:20:20;;;;;;;6.27;5.30;;;10.50;50.80;;;;;;5050813;28;20518;-74
2022/04/04 10:22:52;;;;;;;11.63;5.30;;;10.00;51.80;;;;;;5048687;28;20499;-76
2022/04/04 10:25:21;;;;;;;6.13;5.53;;;9.70;54.80;;;;;;5049724;28;20437;-76
2022/04/04 10:27:48;;;;;;;6.10;5.50;;;9.40;51.60;;;;;;5048038;28;20426;-76
2022/04/04 10:30:16;;;;;;;5.50;4.90;;;9.90;54.80;;;;;;5048168;28;20906;-76
2022/04/04 10:33:02;;;;;;;5.80;5.20;;;10.40;56.30;;;;;;5049306;28;20656;-75
2022/04/04 10:35:30;;;;;;;6.47;5.63;;;10.30;54.90;;;;;;5049199;28;20441;-76
2022/04/04 10:38:03;;;;;;;6.23;5.63;;;10.60;53.90;;;;;;5049189;28;20434;-76
2022/04/04 10:40:31;;;;;;;6.97;5.57;;;11.20;53.80;;;;;;5049102;28;20410;-76
2022/04/04 10:43:13;;;;;;;7.43;5.67;;;10.00;54.70;;;;;;5050274;28;21071;-76
2022/04/04 10:45:52;;;;;;;6.33;5.43;;;9.70;56.80;;;;;;5047961;28;20825;-75
2022/04/04 10:48:20;;;;;;;6.70;5.10;;;10.70;57.40;;;;;;5047934;28;20486;-76
2022/04/04 10:50:46;;;;;;;5.93;5.43;;;11.00;53.30;;;;;;5048879;28;20471;-76
2022/04/04 10:53:12;;;;;;;6.67;6.07;;;11.20;55.60;;;;;;5049304;28;20451;-75
2022/04/04 10:55:37;;;;;;;8.73;5.67;;;10.50;52.20;;;;;;5049309;28;20990;-76
2022/04/04 10:58:11;;;;;;;6.67;5.57;;;10.90;55.70;;;;;;5049377;28;20646;-75
2022/04/04 11:00:58;;;;;;;9.63;6.70;;;11.30;56.00;;;;;;5049711;28;20443;-76
2022/04/04 11:03:35;;;;;;;6.20;5.70;;;11.30;51.80;;;;;;5050710;28;21000;-76
2022/04/04 11:09:04;;;;;;;6.13;4.97;;;10.60;49.30;;;;;;5050538;28;20417;-75
2022/04/04 11:11:58;;;;;;;5.97;5.37;;;11.50;53.50;;;;;;5049625;28;20466;-76
2022/04/04 11:14:26;;;;;;;9.73;6.83;;;11.50;55.00;;;;;;5049631;28;20442;-76
2022/04/04 11:20:00;;;;;;;6.97;5.80;;;10.90;52.10;;;;;;5048707;28;20443;-75
2022/04/04 11:22:31;;;;;;;7.40;5.97;;;10.20;49.20;;;;;;5048996;28;20426;-75
2022/04/04 11:25:03;;;;;;;6.10;5.50;;;10.70;56.10;;;;;;5048595;28;20445;-76
2022/04/04 11:27:34;;;;;;;5.90;5.40;;;10.80;55.80;;;;;;5048308;28;20458;-76
2022/04/04 11:30:11;;;;;;;5.57;4.97;;;10.70;56.90;;;;;;5047933;28;20922;-76
2022/04/04 11:32:40;;;;;;;6.80;6.10;;;10.80;56.30;;;;;;5048023;28;20573;-76
2022/04/04 11:35:09;;;;;;;7.47;6.67;;;11.10;56.10;;;;;;5048122;28;20571;-76
2022/04/04 11:37:47;;;;;;;6.97;6.20;;;11.20;56.60;;;;;;5048044;28;20411;-75
2022/04/04 11:40:18;;;;;;;9.13;6.57;;;11.00;55.20;;;;;;5048548;28;20426;-76
2022/04/04 11:42:51;;;;;;;6.87;5.87;;;11.30;53.10;;;;;;5046992;28;20418;-75
2022/04/04 11:45:26;;;;;;;8.17;6.70;;;11.30;57.50;;;;;;5048558;28;20437;-75
2022/04/04 11:48:04;;;;;;;6.63;5.57;;;11.50;58.70;;;;;;5048463;28;20472;-75
2022/04/04 11:50:34;;;;;;;10.93;6.73;;;11.00;54.90;;;;;;5048409;28;20429;-76
2022/04/04 11:53:02;;;;;;;10.60;7.17;;;10.40;53.00;;;;;;5046986;28;20817;-75
2022/04/04 11:55:31;;;;;;;6.00;5.40;;;10.80;58.10;;;;;;5046783;28;20791;-75
2022/04/04 11:58:02;;;;;;;6.90;5.77;;;10.70;55.00;;;;;;5048341;28;20425;-76
2022/04/04 12:00:31;;;;;;;10.73;5.37;;;11.20;58.80;;;;;;5046929;28;20428;-76
2022/04/04 12:03:09;;;;;;;8.73;5.40;;;11.00;56.50;;;;;;5047634;28;20522;-76
2022/04/04 12:05:43;;;;;;;7.60;4.80;;;10.60;54.60;;;;;;5047801;28;21075;-76
2022/04/04 12:08:12;;;;;;;5.37;4.90;;;10.80;54.60;;;;;;5048192;28;20430;-76
2022/04/04 12:10:40;;;;;;;5.00;4.57;;;11.00;55.10;;;;;;5047885;28;20441;-75
2022/04/04 12:13:18;;;;;;;5.40;4.90;;;9.70;50.90;;;;;;5046465;28;20430;-75
2022/04/04 12:15:44;;;;;;;5.77;5.20;;;10.50;56.00;;;;;;5048031;28;20534;-76
2022/04/04 12:18:12;;;;;;;7.77;5.10;;;11.10;57.50;;;;;;5048049;28;20407;-76
2022/04/04 12:20:45;;;;;;;5.13;4.63;;;11.20;56.50;;;;;;5048012;28;21238;-75
2022/04/04 12:26:03;;;;;;;6.50;4.40;;;10.60;52.00;;;;;;5048214;28;20451;-75
2022/04/04 12:28:32;;;;;;;5.93;4.60;;;10.90;55.10;;;;;;5047867;28;20494;-75
2022/04/04 12:31:13;;;;;;;7.13;5.60;;;10.90;55.80;;;;;;5046346;28;20477;-76
2022/04/04 12:33:39;;;;;;;6.50;5.10;;;10.90;57.80;;;;;;5047910;28;20453;-76
2022/04/04 12:36:05;;;;;;;5.20;4.50;;;11.20;58.30;;;;;;5047680;28;20436;-75
2022/04/04 12:38:36;;;;;;;4.73;4.33;;;10.80;57.50;;;;;;5047801;28;20424;-76
2022/04/04 12:41:10;;;;;;;4.73;4.10;;;11.20;62.60;;;;;;5047729;28;20935;-76
2022/04/04 12:43:38;;;;;;;5.80;3.70;;;11.60;58.80;;;;;;5046117;28;20964;-75
2022/04/04 12:46:07;;;;;;;4.80;4.13;;;11.40;56.90;;;;;;5047631;28;20445;-76
2022/04/04 12:48:35;;;;;;;5.07;4.67;;;11.10;53.90;;;;;;5046105;28;20525;-76
2022/04/04 12:51:01;;;;;;;5.30;4.80;;;11.10;54.60;;;;;;5046050;28;20469;-74
2022/04/04 12:53:27;;;;;;;8.23;4.67;;;10.90;55.70;;;;;;5046243;28;20412;-75
2022/04/04 12:56:08;;;;;;;5.13;4.63;;;10.70;56.20;;;;;;5046009;28;20470;-75
2022/04/04 12:58:34;;;;;;;5.60;3.87;;;11.30;58.00;;;;;;5045961;28;20489;-77
2022/04/04 13:01:17;;;;;;;6.97;5.70;;;10.70;54.20;;;;;;5047161;28;20418;-75